sensor_id;sensor_type;location;lat;lon;timestamp;P1;durP1;ratioP1;P2;durP2;ratioP2
75885;SDS011;64561;44.018;10.144;2023-04-05T00:00:26;3.67;;;1.92;;
75885;SDS011;64561;44.018;10.144;2023-04-05T00:02:53;3.22;;;1.92;;
75885;SDS011;64561;44.018;10.144;2023-04-05T00:05:23;4.10;;;2.08;;
75885;SDS011;64561;44.018;10.144;2023-04-05T00:07:56;3.28;;;1.80;;
75885;SDS011;64561;44.018;10.144;2023-04-05T00:10:23;3.92;;;1.65;;
75885;SDS011;64561;44.018;10.144;2023-04-05T00:12:51;2.67;;;1.67;;
75885;SDS011;64561;44.018;10.144;2023-04-05T00:15:18;2.67;;;1.80;;
75885;SDS011;64561;44.018;10.144;2023-04-05T00:17:45;2.53;;;1.40;;
75885;SDS011;64561;44.018;10.144;2023-04-05T00:20:12;2.55;;;1.55;;
75885;SDS011;64561;44.018;10.144;2023-04-05T00:22:40;2.85;;;1.73;;
75885;SDS011;64561;44.018;10.144;2023-04-05T00:25:10;3.92;;;1.92;;
75885;SDS011;64561;44.018;10.144;2023-04-05T00:27:37;2.42;;;1.67;;
75885;SDS011;64561;44.018;10.144;2023-04-05T00:30:04;2.40;;;1.60;;
75885;SDS011;64561;44.018;10.144;2023-04-05T00:32:32;3.70;;;1.80;;
75885;SDS011;64561;44.018;10.144;2023-04-05T00:34:58;2.72;;;1.67;;
75885;SDS011;64561;44.018;10.144;2023-04-05T00:37:25;3.28;;;1.88;;
75885;SDS011;64561;44.018;10.144;2023-04-05T00:39:52;3.20;;;1.83;;
75885;SDS011;64561;44.018;10.144;2023-04-05T00:42:19;4.93;;;2.20;;
75885;SDS011;64561;44.018;10.144;2023-04-05T00:44:46;3.50;;;1.88;;
75885;SDS011;64561;44.018;10.144;2023-04-05T00:47:13;3.10;;;2.22;;
75885;SDS011;64561;44.018;10.144;2023-04-05T00:49:39;4.88;;;2.70;;
75885;SDS011;64561;44.018;10.144;2023-04-05T00:52:07;4.65;;;2.50;;
75885;SDS011;64561;44.018;10.144;2023-04-05T00:54:34;5.35;;;2.80;;
75885;SDS011;64561;44.018;10.144;2023-04-05T00:57:01;5.95;;;3.20;;
75885;SDS011;64561;44.018;10.144;2023-04-05T00:59:28;4.78;;;3.33;;
75885;SDS011;64561;44.018;10.144;2023-04-05T01:01:57;7.00;;;3.33;;
75885;SDS011;64561;44.018;10.144;2023-04-05T01:04:29;7.50;;;3.35;;
75885;SDS011;64561;44.018;10.144;2023-04-05T01:09:46;4.60;;;2.45;;
75885;SDS011;64561;44.018;10.144;2023-04-05T01:12:18;6.18;;;2.78;;
75885;SDS011;64561;44.018;10.144;2023-04-05T01:14:49;5.55;;;3.28;;
75885;SDS011;64561;44.018;10.144;2023-04-05T01:17:18;7.60;;;4.32;;
75885;SDS011;64561;44.018;10.144;2023-04-05T01:19:48;8.45;;;4.78;;
75885;SDS011;64561;44.018;10.144;2023-04-05T01:22:24;5.20;;;3.15;;
75885;SDS011;64561;44.018;10.144;2023-04-05T01:30:29;6.63;;;4.07;;
75885;SDS011;64561;44.018;10.144;2023-04-05T01:35:51;6.80;;;3.70;;
75885;SDS011;64561;44.018;10.144;2023-04-05T01:38:26;7.00;;;3.63;;
75885;SDS011;64561;44.018;10.144;2023-04-05T01:40:53;6.50;;;3.40;;
75885;SDS011;64561;44.018;10.144;2023-04-05T01:43:20;4.35;;;2.70;;
75885;SDS011;64561;44.018;10.144;2023-04-05T01:45:47;5.82;;;2.88;;
75885;SDS011;64561;44.018;10.144;2023-04-05T01:48:14;6.13;;;2.72;;
75885;SDS011;64561;44.018;10.144;2023-04-05T01:50:41;8.95;;;3.00;;
75885;SDS011;64561;44.018;10.144;2023-04-05T01:53:09;6.63;;;4.82;;
75885;SDS011;64561;44.018;10.144;2023-04-05T01:55:35;8.82;;;4.28;;
75885;SDS011;64561;44.018;10.144;2023-04-05T01:58:02;8.43;;;3.88;;
75885;SDS011;64561;44.018;10.144;2023-04-05T02:00:30;5.50;;;3.28;;
75885;SDS011;64561;44.018;10.144;2023-04-05T02:02:57;8.77;;;3.38;;
75885;SDS011;64561;44.018;10.144;2023-04-05T02:05:24;5.20;;;2.75;;
75885;SDS011;64561;44.018;10.144;2023-04-05T02:07:51;4.47;;;2.75;;
75885;SDS011;64561;44.018;10.144;2023-04-05T02:10:18;4.57;;;2.58;;
75885;SDS011;64561;44.018;10.144;2023-04-05T02:12:45;4.30;;;2.28;;
75885;SDS011;64561;44.018;10.144;2023-04-05T02:15:12;5.63;;;2.60;;
75885;SDS011;64561;44.018;10.144;2023-04-05T02:17:39;5.20;;;2.20;;
75885;SDS011;64561;44.018;10.144;2023-04-05T02:20:11;4.45;;;2.30;;
75885;SDS011;64561;44.018;10.144;2023-04-05T02:22:40;4.55;;;2.30;;
75885;SDS011;64561;44.018;10.144;2023-04-05T02:25:11;4.35;;;2.03;;
75885;SDS011;64561;44.018;10.144;2023-04-05T02:27:39;4.90;;;2.15;;
75885;SDS011;64561;44.018;10.144;2023-04-05T02:30:06;5.47;;;1.85;;
75885;SDS011;64561;44.018;10.144;2023-04-05T02:32:39;3.78;;;1.65;;
75885;SDS011;64561;44.018;10.144;2023-04-05T02:35:10;4.18;;;1.90;;
75885;SDS011;64561;44.018;10.144;2023-04-05T02:37:37;4.63;;;1.70;;
75885;SDS011;64561;44.018;10.144;2023-04-05T02:40:06;3.00;;;1.45;;
75885;SDS011;64561;44.018;10.144;2023-04-05T02:42:36;2.55;;;1.67;;
75885;SDS011;64561;44.018;10.144;2023-04-05T02:45:06;4.95;;;2.00;;
75885;SDS011;64561;44.018;10.144;2023-04-05T02:47:34;6.15;;;2.05;;
75885;SDS011;64561;44.018;10.144;2023-04-05T02:50:04;4.70;;;1.80;;
75885;SDS011;64561;44.018;10.144;2023-04-05T02:52:38;2.92;;;1.80;;
75885;SDS011;64561;44.018;10.144;2023-04-05T02:55:07;2.90;;;1.65;;
75885;SDS011;64561;44.018;10.144;2023-04-05T02:57:37;2.00;;;1.30;;
75885;SDS011;64561;44.018;10.144;2023-04-05T03:00:17;3.67;;;1.65;;
75885;SDS011;64561;44.018;10.144;2023-04-05T03:02:45;2.45;;;1.65;;
75885;SDS011;64561;44.018;10.144;2023-04-05T03:05:12;3.30;;;1.60;;
75885;SDS011;64561;44.018;10.144;2023-04-05T03:07:41;2.80;;;1.80;;
75885;SDS011;64561;44.018;10.144;2023-04-05T03:10:12;3.08;;;1.63;;
75885;SDS011;64561;44.018;10.144;2023-04-05T03:12:40;4.28;;;1.90;;
75885;SDS011;64561;44.018;10.144;2023-04-05T03:15:09;4.10;;;1.60;;
75885;SDS011;64561;44.018;10.144;2023-04-05T03:17:39;5.00;;;2.20;;
75885;SDS011;64561;44.018;10.144;2023-04-05T03:20:11;2.92;;;1.90;;
75885;SDS011;64561;44.018;10.144;2023-04-05T03:22:38;3.42;;;2.22;;
75885;SDS011;64561;44.018;10.144;2023-04-05T03:25:08;2.95;;;1.98;;
75885;SDS011;64561;44.018;10.144;2023-04-05T03:27:41;4.10;;;1.70;;
75885;SDS011;64561;44.018;10.144;2023-04-05T03:30:12;3.00;;;1.70;;
75885;SDS011;64561;44.018;10.144;2023-04-05T03:32:46;3.28;;;1.75;;
75885;SDS011;64561;44.018;10.144;2023-04-05T03:35:36;3.05;;;1.75;;
75885;SDS011;64561;44.018;10.144;2023-04-05T03:38:06;3.20;;;1.73;;
75885;SDS011;64561;44.018;10.144;2023-04-05T03:40:35;3.10;;;1.90;;
75885;SDS011;64561;44.018;10.144;2023-04-05T03:43:04;3.85;;;2.00;;
75885;SDS011;64561;44.018;10.144;2023-04-05T03:45:31;2.80;;;1.90;;
75885;SDS011;64561;44.018;10.144;2023-04-05T03:47:59;5.15;;;1.65;;
75885;SDS011;64561;44.018;10.144;2023-04-05T03:50:26;4.07;;;1.70;;
75885;SDS011;64561;44.018;10.144;2023-04-05T03:52:53;3.38;;;1.77;;
75885;SDS011;64561;44.018;10.144;2023-04-05T03:55:20;2.83;;;1.70;;
75885;SDS011;64561;44.018;10.144;2023-04-05T03:57:49;3.58;;;1.88;;
75885;SDS011;64561;44.018;10.144;2023-04-05T04:00:22;3.17;;;1.95;;
75885;SDS011;64561;44.018;10.144;2023-04-05T04:03:10;3.85;;;1.77;;
75885;SDS011;64561;44.018;10.144;2023-04-05T04:05:40;3.55;;;1.77;;
75885;SDS011;64561;44.018;10.144;2023-04-05T04:08:08;4.25;;;2.13;;
75885;SDS011;64561;44.018;10.144;2023-04-05T04:10:36;5.43;;;2.17;;
75885;SDS011;64561;44.018;10.144;2023-04-05T04:13:13;3.17;;;1.83;;
75885;SDS011;64561;44.018;10.144;2023-04-05T04:15:41;5.80;;;2.75;;
75885;SDS011;64561;44.018;10.144;2023-04-05T04:18:22;4.63;;;2.22;;
75885;SDS011;64561;44.018;10.144;2023-04-05T04:21:18;3.65;;;2.03;;
75885;SDS011;64561;44.018;10.144;2023-04-05T04:24:07;3.53;;;1.88;;
75885;SDS011;64561;44.018;10.144;2023-04-05T04:27:06;3.78;;;2.13;;
75885;SDS011;64561;44.018;10.144;2023-04-05T04:29:54;3.47;;;2.13;;
75885;SDS011;64561;44.018;10.144;2023-04-05T04:32:42;4.60;;;2.10;;
75885;SDS011;64561;44.018;10.144;2023-04-05T04:35:37;5.70;;;2.72;;
75885;SDS011;64561;44.018;10.144;2023-04-05T04:38:23;5.60;;;2.53;;
75885;SDS011;64561;44.018;10.144;2023-04-05T04:41:14;3.60;;;1.90;;
75885;SDS011;64561;44.018;10.144;2023-04-05T04:44:09;4.25;;;2.20;;
75885;SDS011;64561;44.018;10.144;2023-04-05T04:47:12;3.90;;;2.50;;
75885;SDS011;64561;44.018;10.144;2023-04-05T04:50:19;6.38;;;2.65;;
75885;SDS011;64561;44.018;10.144;2023-04-05T04:52:46;4.60;;;2.50;;
75885;SDS011;64561;44.018;10.144;2023-04-05T04:55:13;3.65;;;2.25;;
75885;SDS011;64561;44.018;10.144;2023-04-05T04:57:42;7.47;;;3.03;;
75885;SDS011;64561;44.018;10.144;2023-04-05T05:00:09;6.72;;;2.53;;
75885;SDS011;64561;44.018;10.144;2023-04-05T05:02:43;6.22;;;3.05;;
75885;SDS011;64561;44.018;10.144;2023-04-05T05:05:13;9.05;;;3.05;;
75885;SDS011;64561;44.018;10.144;2023-04-05T05:07:40;9.85;;;2.72;;
75885;SDS011;64561;44.018;10.144;2023-04-05T05:10:08;7.45;;;3.00;;
75885;SDS011;64561;44.018;10.144;2023-04-05T05:12:37;6.38;;;3.55;;
75885;SDS011;64561;44.018;10.144;2023-04-05T05:15:04;8.48;;;3.65;;
75885;SDS011;64561;44.018;10.144;2023-04-05T05:17:31;8.25;;;4.45;;
75885;SDS011;64561;44.018;10.144;2023-04-05T05:20:00;5.97;;;3.95;;
75885;SDS011;64561;44.018;10.144;2023-04-05T05:22:29;3.42;;;2.63;;
75885;SDS011;64561;44.018;10.144;2023-04-05T05:24:56;4.85;;;2.45;;
75885;SDS011;64561;44.018;10.144;2023-04-05T05:27:23;4.93;;;2.22;;
75885;SDS011;64561;44.018;10.144;2023-04-05T05:29:50;4.57;;;2.75;;
75885;SDS011;64561;44.018;10.144;2023-04-05T05:32:17;4.40;;;2.28;;
75885;SDS011;64561;44.018;10.144;2023-04-05T05:34:43;5.57;;;2.13;;
75885;SDS011;64561;44.018;10.144;2023-04-05T05:37:10;5.30;;;2.17;;
75885;SDS011;64561;44.018;10.144;2023-04-05T05:39:38;3.90;;;2.10;;
75885;SDS011;64561;44.018;10.144;2023-04-05T05:42:05;12.30;;;5.68;;
75885;SDS011;64561;44.018;10.144;2023-04-05T05:44:32;14.02;;;6.43;;
75885;SDS011;64561;44.018;10.144;2023-04-05T05:46:58;12.93;;;5.75;;
75885;SDS011;64561;44.018;10.144;2023-04-05T05:49:25;9.75;;;5.93;;
75885;SDS011;64561;44.018;10.144;2023-04-05T05:51:52;10.95;;;4.80;;
75885;SDS011;64561;44.018;10.144;2023-04-05T05:54:19;5.72;;;3.42;;
75885;SDS011;64561;44.018;10.144;2023-04-05T05:56:46;6.10;;;3.13;;
75885;SDS011;64561;44.018;10.144;2023-04-05T05:59:12;7.28;;;2.90;;
75885;SDS011;64561;44.018;10.144;2023-04-05T06:01:40;8.23;;;3.63;;
75885;SDS011;64561;44.018;10.144;2023-04-05T06:04:08;7.43;;;3.63;;
75885;SDS011;64561;44.018;10.144;2023-04-05T06:06:35;8.15;;;3.65;;
75885;SDS011;64561;44.018;10.144;2023-04-05T06:09:03;12.15;;;4.40;;
75885;SDS011;64561;44.018;10.144;2023-04-05T06:11:30;8.30;;;5.57;;
75885;SDS011;64561;44.018;10.144;2023-04-05T06:13:56;9.25;;;4.40;;
75885;SDS011;64561;44.018;10.144;2023-04-05T06:16:23;6.57;;;3.85;;
75885;SDS011;64561;44.018;10.144;2023-04-05T06:18:50;10.20;;;3.75;;
75885;SDS011;64561;44.018;10.144;2023-04-05T06:21:17;9.50;;;4.03;;
75885;SDS011;64561;44.018;10.144;2023-04-05T06:23:44;6.32;;;4.22;;
75885;SDS011;64561;44.018;10.144;2023-04-05T06:26:17;10.55;;;4.30;;
75885;SDS011;64561;44.018;10.144;2023-04-05T06:28:45;8.88;;;4.00;;
75885;SDS011;64561;44.018;10.144;2023-04-05T06:31:15;7.35;;;4.40;;
75885;SDS011;64561;44.018;10.144;2023-04-05T06:33:43;10.10;;;4.50;;
75885;SDS011;64561;44.018;10.144;2023-04-05T06:36:09;10.20;;;3.50;;
75885;SDS011;64561;44.018;10.144;2023-04-05T06:38:38;5.75;;;3.45;;
75885;SDS011;64561;44.018;10.144;2023-04-05T06:41:05;6.68;;;3.70;;
75885;SDS011;64561;44.018;10.144;2023-04-05T06:43:32;12.77;;;4.20;;
75885;SDS011;64561;44.018;10.144;2023-04-05T06:45:59;7.93;;;4.13;;
75885;SDS011;64561;44.018;10.144;2023-04-05T06:48:27;6.00;;;3.00;;
75885;SDS011;64561;44.018;10.144;2023-04-05T06:50:58;5.28;;;3.22;;
75885;SDS011;64561;44.018;10.144;2023-04-05T06:53:26;8.25;;;3.42;;
75885;SDS011;64561;44.018;10.144;2023-04-05T06:55:54;6.88;;;2.50;;
75885;SDS011;64561;44.018;10.144;2023-04-05T06:58:22;4.70;;;2.80;;
75885;SDS011;64561;44.018;10.144;2023-04-05T07:00:49;4.70;;;2.88;;
75885;SDS011;64561;44.018;10.144;2023-04-05T07:03:17;6.30;;;3.35;;
75885;SDS011;64561;44.018;10.144;2023-04-05T07:05:50;9.13;;;4.65;;
75885;SDS011;64561;44.018;10.144;2023-04-05T07:08:19;10.38;;;5.53;;
75885;SDS011;64561;44.018;10.144;2023-04-05T07:10:46;12.60;;;4.88;;
75885;SDS011;64561;44.018;10.144;2023-04-05T07:13:14;9.88;;;4.72;;
75885;SDS011;64561;44.018;10.144;2023-04-05T07:15:42;12.10;;;4.75;;
75885;SDS011;64561;44.018;10.144;2023-04-05T07:18:10;6.93;;;3.95;;
75885;SDS011;64561;44.018;10.144;2023-04-05T07:20:37;6.85;;;3.72;;
75885;SDS011;64561;44.018;10.144;2023-04-05T07:23:05;7.13;;;3.63;;
75885;SDS011;64561;44.018;10.144;2023-04-05T07:25:32;10.10;;;3.92;;
75885;SDS011;64561;44.018;10.144;2023-04-05T07:27:59;9.77;;;3.25;;
75885;SDS011;64561;44.018;10.144;2023-04-05T07:30:26;6.30;;;3.20;;
75885;SDS011;64561;44.018;10.144;2023-04-05T07:32:53;4.40;;;2.58;;
75885;SDS011;64561;44.018;10.144;2023-04-05T07:35:21;7.15;;;3.13;;
75885;SDS011;64561;44.018;10.144;2023-04-05T07:37:48;9.68;;;3.40;;
75885;SDS011;64561;44.018;10.144;2023-04-05T07:40:15;5.90;;;3.10;;
75885;SDS011;64561;44.018;10.144;2023-04-05T07:42:42;8.88;;;2.95;;
75885;SDS011;64561;44.018;10.144;2023-04-05T07:45:09;4.80;;;3.33;;
75885;SDS011;64561;44.018;10.144;2023-04-05T07:47:36;6.43;;;2.70;;
75885;SDS011;64561;44.018;10.144;2023-04-05T07:50:03;3.58;;;2.17;;
75885;SDS011;64561;44.018;10.144;2023-04-05T07:52:30;2.88;;;2.00;;
75885;SDS011;64561;44.018;10.144;2023-04-05T07:54:57;4.20;;;2.20;;
75885;SDS011;64561;44.018;10.144;2023-04-05T07:57:23;3.88;;;2.42;;
75885;SDS011;64561;44.018;10.144;2023-04-05T07:59:51;4.57;;;2.15;;
75885;SDS011;64561;44.018;10.144;2023-04-05T08:02:20;7.00;;;2.50;;
75885;SDS011;64561;44.018;10.144;2023-04-05T08:04:46;5.90;;;2.20;;
75885;SDS011;64561;44.018;10.144;2023-04-05T08:07:13;6.10;;;2.58;;
75885;SDS011;64561;44.018;10.144;2023-04-05T08:09:40;5.10;;;1.88;;
75885;SDS011;64561;44.018;10.144;2023-04-05T08:12:07;5.20;;;2.63;;
75885;SDS011;64561;44.018;10.144;2023-04-05T08:14:34;4.13;;;2.00;;
75885;SDS011;64561;44.018;10.144;2023-04-05T08:17:01;4.00;;;1.83;;
75885;SDS011;64561;44.018;10.144;2023-04-05T08:19:27;3.50;;;2.00;;
75885;SDS011;64561;44.018;10.144;2023-04-05T08:21:54;6.03;;;2.08;;
75885;SDS011;64561;44.018;10.144;2023-04-05T08:24:21;5.45;;;2.65;;
75885;SDS011;64561;44.018;10.144;2023-04-05T08:26:48;3.13;;;2.00;;
75885;SDS011;64561;44.018;10.144;2023-04-05T08:29:15;4.13;;;2.22;;
75885;SDS011;64561;44.018;10.144;2023-04-05T08:31:42;3.83;;;1.90;;
75885;SDS011;64561;44.018;10.144;2023-04-05T08:34:08;3.80;;;2.00;;
75885;SDS011;64561;44.018;10.144;2023-04-05T08:36:35;7.32;;;2.08;;
75885;SDS011;64561;44.018;10.144;2023-04-05T08:43:03;4.85;;;2.25;;
75885;SDS011;64561;44.018;10.144;2023-04-05T08:45:49;2.85;;;2.00;;
75885;SDS011;64561;44.018;10.144;2023-04-05T08:48:17;4.38;;;2.08;;
75885;SDS011;64561;44.018;10.144;2023-04-05T08:50:48;3.80;;;2.10;;
75885;SDS011;64561;44.018;10.144;2023-04-05T08:53:17;5.63;;;2.10;;
75885;SDS011;64561;44.018;10.144;2023-04-05T08:55:52;3.65;;;1.63;;
75885;SDS011;64561;44.018;10.144;2023-04-05T09:00:49;3.45;;;2.03;;
75885;SDS011;64561;44.018;10.144;2023-04-05T09:03:21;4.80;;;2.30;;
75885;SDS011;64561;44.018;10.144;2023-04-05T09:06:00;3.78;;;2.03;;
75885;SDS011;64561;44.018;10.144;2023-04-05T09:08:31;5.28;;;2.20;;
75885;SDS011;64561;44.018;10.144;2023-04-05T09:10:59;4.68;;;1.90;;
75885;SDS011;64561;44.018;10.144;2023-04-05T09:13:25;6.70;;;4.25;;
75885;SDS011;64561;44.018;10.144;2023-04-05T09:15:52;6.15;;;3.80;;
75885;SDS011;64561;44.018;10.144;2023-04-05T09:18:19;6.70;;;4.95;;
75885;SDS011;64561;44.018;10.144;2023-04-05T09:21:00;3.53;;;2.17;;
75885;SDS011;64561;44.018;10.144;2023-04-05T09:23:29;4.53;;;1.83;;
75885;SDS011;64561;44.018;10.144;2023-04-05T09:25:56;5.28;;;2.25;;
75885;SDS011;64561;44.018;10.144;2023-04-05T09:28:22;2.95;;;2.03;;
75885;SDS011;64561;44.018;10.144;2023-04-05T09:30:59;2.65;;;1.80;;
75885;SDS011;64561;44.018;10.144;2023-04-05T09:33:25;4.28;;;2.08;;
75885;SDS011;64561;44.018;10.144;2023-04-05T09:35:52;5.65;;;2.65;;
75885;SDS011;64561;44.018;10.144;2023-04-05T09:38:20;3.92;;;2.00;;
75885;SDS011;64561;44.018;10.144;2023-04-05T09:41:08;3.28;;;2.00;;
75885;SDS011;64561;44.018;10.144;2023-04-05T09:43:39;4.00;;;2.50;;
75885;SDS011;64561;44.018;10.144;2023-04-05T09:49:10;5.88;;;2.50;;
75885;SDS011;64561;44.018;10.144;2023-04-05T09:51:37;5.25;;;2.40;;
75885;SDS011;64561;44.018;10.144;2023-04-05T09:54:08;4.55;;;2.63;;
75885;SDS011;64561;44.018;10.144;2023-04-05T09:56:37;3.90;;;2.35;;
75885;SDS011;64561;44.018;10.144;2023-04-05T09:59:09;4.10;;;2.35;;
75885;SDS011;64561;44.018;10.144;2023-04-05T10:01:38;3.78;;;1.98;;
75885;SDS011;64561;44.018;10.144;2023-04-05T10:04:09;4.18;;;2.33;;
75885;SDS011;64561;44.018;10.144;2023-04-05T10:06:37;4.03;;;2.05;;
75885;SDS011;64561;44.018;10.144;2023-04-05T10:09:05;6.05;;;2.50;;
75885;SDS011;64561;44.018;10.144;2023-04-05T10:11:34;5.88;;;2.35;;
75885;SDS011;64561;44.018;10.144;2023-04-05T10:14:05;3.67;;;2.05;;
75885;SDS011;64561;44.018;10.144;2023-04-05T10:28:11;5.25;;;2.13;;
75885;SDS011;64561;44.018;10.144;2023-04-05T10:31:16;3.60;;;2.17;;
75885;SDS011;64561;44.018;10.144;2023-04-05T10:34:07;4.88;;;2.22;;
75885;SDS011;64561;44.018;10.144;2023-04-05T10:36:44;3.47;;;2.05;;
75885;SDS011;64561;44.018;10.144;2023-04-05T10:39:33;3.25;;;1.90;;
75885;SDS011;64561;44.018;10.144;2023-04-05T10:44:35;2.88;;;1.98;;
75885;SDS011;64561;44.018;10.144;2023-04-05T10:47:04;6.88;;;2.30;;
75885;SDS011;64561;44.018;10.144;2023-04-05T10:49:45;5.93;;;2.42;;
75885;SDS011;64561;44.018;10.144;2023-04-05T10:52:15;4.25;;;2.33;;
75885;SDS011;64561;44.018;10.144;2023-04-05T10:54:43;4.68;;;2.70;;
75885;SDS011;64561;44.018;10.144;2023-04-05T10:57:10;4.60;;;2.22;;
75885;SDS011;64561;44.018;10.144;2023-04-05T10:59:40;4.75;;;2.28;;
75885;SDS011;64561;44.018;10.144;2023-04-05T11:02:10;3.88;;;2.42;;
75885;SDS011;64561;44.018;10.144;2023-04-05T11:04:38;4.00;;;2.35;;
75885;SDS011;64561;44.018;10.144;2023-04-05T11:07:16;4.35;;;2.38;;
75885;SDS011;64561;44.018;10.144;2023-04-05T11:10:03;11.65;;;4.45;;
75885;SDS011;64561;44.018;10.144;2023-04-05T11:20:46;4.72;;;2.58;;
75885;SDS011;64561;44.018;10.144;2023-04-05T11:23:18;4.13;;;2.40;;
75885;SDS011;64561;44.018;10.144;2023-04-05T11:25:51;4.63;;;2.38;;
75885;SDS011;64561;44.018;10.144;2023-04-05T11:36:29;7.13;;;2.40;;
75885;SDS011;64561;44.018;10.144;2023-04-05T11:41:52;5.05;;;2.40;;
75885;SDS011;64561;44.018;10.144;2023-04-05T11:47:10;2.88;;;1.92;;
75885;SDS011;64561;44.018;10.144;2023-04-05T11:49:38;5.63;;;2.50;;
75885;SDS011;64561;44.018;10.144;2023-04-05T11:52:09;3.90;;;2.35;;
75885;SDS011;64561;44.018;10.144;2023-04-05T11:54:37;3.42;;;2.13;;
75885;SDS011;64561;44.018;10.144;2023-04-05T11:57:05;3.38;;;2.00;;
75885;SDS011;64561;44.018;10.144;2023-04-05T11:59:37;4.53;;;1.98;;
75885;SDS011;64561;44.018;10.144;2023-04-05T12:02:05;5.13;;;2.20;;
75885;SDS011;64561;44.018;10.144;2023-04-05T12:04:34;4.72;;;2.35;;
75885;SDS011;64561;44.018;10.144;2023-04-05T12:09:59;3.92;;;2.30;;
75885;SDS011;64561;44.018;10.144;2023-04-05T12:12:42;4.40;;;2.55;;
75885;SDS011;64561;44.018;10.144;2023-04-05T12:15:11;3.53;;;1.90;;
75885;SDS011;64561;44.018;10.144;2023-04-05T12:17:47;4.82;;;2.30;;
75885;SDS011;64561;44.018;10.144;2023-04-05T12:20:16;6.05;;;2.97;;
75885;SDS011;64561;44.018;10.144;2023-04-05T12:22:46;4.70;;;2.20;;
75885;SDS011;64561;44.018;10.144;2023-04-05T12:25:15;3.88;;;2.00;;
75885;SDS011;64561;44.018;10.144;2023-04-05T12:27:42;4.22;;;2.60;;
75885;SDS011;64561;44.018;10.144;2023-04-05T12:32:42;3.90;;;2.08;;
75885;SDS011;64561;44.018;10.144;2023-04-05T12:35:11;3.58;;;2.20;;
75885;SDS011;64561;44.018;10.144;2023-04-05T12:37:42;4.28;;;1.85;;
75885;SDS011;64561;44.018;10.144;2023-04-05T12:40:10;3.60;;;2.10;;
75885;SDS011;64561;44.018;10.144;2023-04-05T12:42:38;5.68;;;2.33;;
75885;SDS011;64561;44.018;10.144;2023-04-05T12:45:09;3.72;;;2.00;;
75885;SDS011;64561;44.018;10.144;2023-04-05T12:50:42;4.72;;;2.45;;
75885;SDS011;64561;44.018;10.144;2023-04-05T12:53:15;3.42;;;1.98;;
75885;SDS011;64561;44.018;10.144;2023-04-05T12:55:47;4.18;;;2.50;;
75885;SDS011;64561;44.018;10.144;2023-04-05T12:58:16;4.18;;;2.20;;
75885;SDS011;64561;44.018;10.144;2023-04-05T13:00:44;3.92;;;2.10;;
75885;SDS011;64561;44.018;10.144;2023-04-05T13:03:16;4.28;;;2.40;;
75885;SDS011;64561;44.018;10.144;2023-04-05T13:05:46;4.03;;;2.20;;
75885;SDS011;64561;44.018;10.144;2023-04-05T13:08:15;4.00;;;2.45;;
75885;SDS011;64561;44.018;10.144;2023-04-05T13:10:45;3.78;;;2.30;;
75885;SDS011;64561;44.018;10.144;2023-04-05T13:13:13;3.83;;;2.10;;
75885;SDS011;64561;44.018;10.144;2023-04-05T13:15:41;4.53;;;2.03;;
75885;SDS011;64561;44.018;10.144;2023-04-05T13:18:09;6.60;;;2.97;;
75885;SDS011;64561;44.018;10.144;2023-04-05T13:20:36;4.00;;;2.65;;
75885;SDS011;64561;44.018;10.144;2023-04-05T13:23:03;3.78;;;2.35;;
75885;SDS011;64561;44.018;10.144;2023-04-05T13:25:36;5.05;;;2.70;;
75885;SDS011;64561;44.018;10.144;2023-04-05T13:28:08;4.15;;;2.30;;
75885;SDS011;64561;44.018;10.144;2023-04-05T13:30:35;4.38;;;2.40;;
75885;SDS011;64561;44.018;10.144;2023-04-05T13:33:02;6.15;;;2.38;;
75885;SDS011;64561;44.018;10.144;2023-04-05T13:35:32;4.60;;;2.30;;
75885;SDS011;64561;44.018;10.144;2023-04-05T13:37:59;3.20;;;1.90;;
75885;SDS011;64561;44.018;10.144;2023-04-05T13:40:30;3.45;;;1.90;;
75885;SDS011;64561;44.018;10.144;2023-04-05T13:42:57;3.90;;;2.42;;
75885;SDS011;64561;44.018;10.144;2023-04-05T13:45:24;4.70;;;2.22;;
75885;SDS011;64561;44.018;10.144;2023-04-05T13:47:51;3.10;;;1.88;;
75885;SDS011;64561;44.018;10.144;2023-04-05T13:50:18;3.40;;;2.15;;
75885;SDS011;64561;44.018;10.144;2023-04-05T13:52:45;4.03;;;2.03;;
75885;SDS011;64561;44.018;10.144;2023-04-05T13:55:12;2.90;;;2.10;;
75885;SDS011;64561;44.018;10.144;2023-04-05T13:57:38;3.70;;;2.17;;
75885;SDS011;64561;44.018;10.144;2023-04-05T14:00:05;3.88;;;2.55;;
75885;SDS011;64561;44.018;10.144;2023-04-05T14:02:39;3.58;;;2.33;;
75885;SDS011;64561;44.018;10.144;2023-04-05T14:05:07;3.72;;;1.88;;
75885;SDS011;64561;44.018;10.144;2023-04-05T14:07:34;3.47;;;1.98;;
75885;SDS011;64561;44.018;10.144;2023-04-05T14:10:01;4.43;;;2.42;;
75885;SDS011;64561;44.018;10.144;2023-04-05T14:12:28;4.82;;;1.92;;
75885;SDS011;64561;44.018;10.144;2023-04-05T14:14:57;3.95;;;2.10;;
75885;SDS011;64561;44.018;10.144;2023-04-05T14:17:25;4.03;;;2.50;;
75885;SDS011;64561;44.018;10.144;2023-04-05T14:19:53;3.05;;;2.05;;
75885;SDS011;64561;44.018;10.144;2023-04-05T14:22:19;3.83;;;2.25;;
75885;SDS011;64561;44.018;10.144;2023-04-05T14:24:47;3.00;;;2.03;;
75885;SDS011;64561;44.018;10.144;2023-04-05T14:27:14;4.63;;;2.35;;
75885;SDS011;64561;44.018;10.144;2023-04-05T14:29:41;3.25;;;2.08;;
75885;SDS011;64561;44.018;10.144;2023-04-05T14:32:11;3.72;;;2.50;;
75885;SDS011;64561;44.018;10.144;2023-04-05T14:34:38;4.22;;;2.20;;
75885;SDS011;64561;44.018;10.144;2023-04-05T14:37:05;4.28;;;2.03;;
75885;SDS011;64561;44.018;10.144;2023-04-05T14:39:33;3.72;;;2.20;;
75885;SDS011;64561;44.018;10.144;2023-04-05T14:42:00;4.68;;;1.90;;
75885;SDS011;64561;44.018;10.144;2023-04-05T14:44:27;4.40;;;2.30;;
75885;SDS011;64561;44.018;10.144;2023-04-05T14:46:54;3.83;;;2.20;;
75885;SDS011;64561;44.018;10.144;2023-04-05T14:49:20;3.85;;;2.15;;
75885;SDS011;64561;44.018;10.144;2023-04-05T14:51:47;5.28;;;2.20;;
75885;SDS011;64561;44.018;10.144;2023-04-05T14:54:14;3.30;;;2.05;;
75885;SDS011;64561;44.018;10.144;2023-04-05T14:56:41;3.30;;;2.08;;
75885;SDS011;64561;44.018;10.144;2023-04-05T14:59:08;4.13;;;2.30;;
75885;SDS011;64561;44.018;10.144;2023-04-05T15:01:35;4.20;;;2.50;;
75885;SDS011;64561;44.018;10.144;2023-04-05T15:04:03;4.22;;;2.28;;
75885;SDS011;64561;44.018;10.144;2023-04-05T15:06:30;4.35;;;2.22;;
75885;SDS011;64561;44.018;10.144;2023-04-05T15:08:56;5.32;;;2.60;;
75885;SDS011;64561;44.018;10.144;2023-04-05T15:11:24;3.50;;;2.13;;
75885;SDS011;64561;44.018;10.144;2023-04-05T15:13:52;5.40;;;2.58;;
75885;SDS011;64561;44.018;10.144;2023-04-05T15:16:19;4.35;;;2.85;;
75885;SDS011;64561;44.018;10.144;2023-04-05T15:18:46;4.20;;;2.38;;
75885;SDS011;64561;44.018;10.144;2023-04-05T15:21:13;4.32;;;2.42;;
75885;SDS011;64561;44.018;10.144;2023-04-05T15:23:40;3.83;;;2.35;;
75885;SDS011;64561;44.018;10.144;2023-04-05T15:26:07;3.38;;;2.15;;
75885;SDS011;64561;44.018;10.144;2023-04-05T15:28:33;4.95;;;2.42;;
75885;SDS011;64561;44.018;10.144;2023-04-05T15:31:00;5.43;;;2.90;;
75885;SDS011;64561;44.018;10.144;2023-04-05T15:33:27;5.10;;;2.50;;
75885;SDS011;64561;44.018;10.144;2023-04-05T15:35:54;5.15;;;2.10;;
75885;SDS011;64561;44.018;10.144;2023-04-05T15:38:21;6.75;;;2.85;;
75885;SDS011;64561;44.018;10.144;2023-04-05T15:40:48;4.28;;;2.60;;
75885;SDS011;64561;44.018;10.144;2023-04-05T15:43:18;4.95;;;2.70;;
75885;SDS011;64561;44.018;10.144;2023-04-05T15:45:45;4.53;;;2.65;;
75885;SDS011;64561;44.018;10.144;2023-04-05T15:48:12;3.85;;;2.42;;
75885;SDS011;64561;44.018;10.144;2023-04-05T15:50:42;4.32;;;2.78;;
75885;SDS011;64561;44.018;10.144;2023-04-05T15:53:09;5.55;;;3.22;;